Connellsville, PA (15425)

11:36 PM EST on February 13, 2016 (GMT -0500)
DAVIS ROAD DAWSON | | Change Station
CLOSE
Current Station
Personal Weather Station
Location: Dawson, PA
Elevation: 1079 ft
Nearby Weather Stations
Active Advisory: Wind Chill Advisory

Elev 1079 ft 40.07 °N, 79.65 °W | Updated 19 seconds ago

Mostly Cloudy
Mostly Cloudy
-0.0 °F
Feels Like 0 °F
N
0.0
Wind Variable Wind from WNW
Gusts 0.0 mph

Today
High -- | Low -- °F
--% Chance of Precip.
Yesterday
High -- | Low -- °F
Precip. -- in
Pressure 30.41 in
Visibility 1.8 miles
Clouds Mostly Cloudy 1000 ft
Overcast 1600 ft
Windchill 0 °F
Dew Point -5 °F
Humidity 79%
Rainfall 0.00 in
Snow Depth Not available.
7:14 AM 5:51 PM
Waxing Crescent, 37% visible
METAR KLBE 140415Z AUTO 00000KT 1 3/4SM -SN BKN010 OVC016 M15/M17 A3041 RMK AO2 P0002
Pressure 30.41 in
Visibility 1.8 miles
Clouds Mostly Cloudy 1000 ft
Overcast 1600 ft
Windchill 0 °F
Dew Point -5 °F
Humidity 79%
Rainfall 0.00 in
Snow Depth Not available.
7:14 AM 5:51 PM
Waxing Crescent, 37% visible
METAR KLBE 140415Z AUTO 00000KT 1 3/4SM -SN BKN010 OVC016 M15/M17 A3041 RMK AO2 P0002

10-Day Weather Forecast

Almanac

Astronomy

Feb. 13, 2016 Rise Set
Actual Time
Civil Twilight
Nautical Twilight
Astronomical Twilight
Moon
Length of Visible Light
Length of Day
Tomorrow will be .
, % of the Moon is Illuminated

Today's Extremes

State Highs State Lows

Community

WunderPhotos

Upload Photos

1,892,746 photos uploaded!

WunderBlog® & News

Nearby

Air Quality

  Air Quality AQ Index Pollutant
Not available.

Snow Depth

Station Depth Elevation

Earthquake Activity

City Distance Mag. Time & Date
Minimum magnitude displayed is 2.5.

Coastal Water Temperatures

Place Temperature

Stations

Nearby Weather Stations

Station Location Temp. Windchill Dew Point Humidity Wind Precip. Elev Updated Type
                   

Watches & Warnings

Wind Chill Advisory
Issued: 10:26 PM EST Feb. 13, 2016 – National Weather Service

... Wind Chill Advisory remains in effect until 9 am EST Sunday...

* wind chill... as low as 14 below. Temperature 4 below to 12
above zero... and west wind 10 to 15 mph.

* Impact... frost bite and hypothermia are likely if precautions
are not taken.

Precautionary/preparedness actions...

A Wind Chill Advisory means that very cold air and strong wind
will combine to generate low wind chill indices. Make sure you
dress appropriately.